メインページ
METAR-TAF:

METAR-TAF

空港 :

アネイチュム島, バヌアツ

緯度: 20-14-57S, 経度: 169-46-17E, 海抜: 2m

現時点の気象観測

当レポートは3時間6分前の12:00(UTC)に作成
の風 2kt
気温 20°C
湿度 94%
気圧 1013 hPa

METAR: NVVA 181200Z AUTO 01002KT //// // NCD 20/19 Q1013 RMK NIL

時間: 02:06 (15:06 UTC)

予報

当レポートは5時間6分前の10:00(UTC)に作成
予報は18日の 12時(UTC)から 19日の 12時(UTC)まで有効
変向風 3kt
視程10km以上
高度2000ftの雲は散在している
確率 30%
間 INからTE UTC
視程: 9000m
高度1800ftの千切れ雲あり
弱いにわか雨

TAF: NVVA 181000Z 1812/1912 VRB03KT 9999 SCT020 PROB30 INTER 1812/1818 9000 -SHRA BKN018

4,000以上の空港の気象観測と天気予報(METAR報とTAF報)

利用可能な観測所は地図上に黄色い丸と赤い丸で示す。

丸の上にカーソルを重ねると観測所名を参照できる。

次にクリックすると気象観測と天気予報を参照できる。

マップの切り替え:黒色「×」印の緑ボタンをクリックして拡大、「-」印の緑ボタンをクリックして縮小、緑色の三角印をクリックして隣りの地図に切り替え


METAR-TAF: